createdAt,value
2019-04-28T00:01:11.262Z,8.00
2019-04-28T00:03:41.981Z,7.90
2019-04-28T00:06:11.283Z,7.90
2019-04-28T00:08:42.742Z,7.90
2019-04-28T00:11:11.740Z,7.90
2019-04-28T00:13:41.770Z,8.00
2019-04-28T00:16:11.693Z,8.00
2019-04-28T00:18:41.557Z,8.00
2019-04-28T00:21:29.413Z,8.00
2019-04-28T00:24:23.162Z,7.90
2019-04-28T00:26:55.362Z,8.00
2019-04-28T00:29:37.253Z,7.90
2019-04-28T00:31:54.816Z,8.00
2019-04-28T00:34:24.099Z,8.00
2019-04-28T00:36:58.273Z,7.90
2019-04-28T00:39:27.189Z,7.90
2019-04-28T00:41:56.281Z,7.90
2019-04-28T00:44:25.634Z,7.90
2019-04-28T00:49:44.871Z,7.80
2019-04-28T00:52:14.095Z,8.00
2019-04-28T00:54:43.295Z,8.00
2019-04-28T00:57:12.508Z,8.00
2019-04-28T00:59:54.249Z,8.00
2019-04-28T01:02:24.048Z,8.00
2019-04-28T01:04:53.190Z,7.90
2019-04-28T01:07:22.210Z,7.90
2019-04-28T01:09:51.712Z,7.80
2019-04-28T01:12:21.459Z,7.80
2019-04-28T01:14:54.501Z,7.80
2019-04-28T01:17:30.579Z,7.70
2019-04-28T01:20:01.341Z,7.70
2019-04-28T01:22:30.194Z,7.70
2019-04-28T01:24:59.603Z,7.70
2019-04-28T01:27:51.102Z,7.60
2019-04-28T01:30:40.392Z,7.50
2019-04-28T01:33:40.797Z,7.50
2019-04-28T01:36:10.401Z,7.50
2019-04-28T01:38:40.207Z,7.60
2019-04-28T01:41:09.894Z,7.60
2019-04-28T01:43:38.772Z,7.60
2019-04-28T01:46:07.906Z,7.70
2019-04-28T01:48:36.860Z,7.60
2019-04-28T01:51:06.333Z,7.60
2019-04-28T01:53:35.400Z,7.60
2019-04-28T01:56:04.454Z,7.60
2019-04-28T01:58:33.505Z,7.60
2019-04-28T02:01:02.653Z,7.40
2019-04-28T02:03:31.436Z,7.50
2019-04-28T02:06:00.710Z,7.30
2019-04-28T02:08:30.330Z,7.40
2019-04-28T02:11:00.226Z,7.40
2019-04-28T02:13:29.974Z,7.30
2019-04-28T02:16:00.013Z,7.30
2019-04-28T02:18:30.005Z,7.30
2019-04-28T02:21:21.430Z,7.20
2019-04-28T02:23:51.431Z,7.20
2019-04-28T02:26:20.464Z,7.20
2019-04-28T02:28:50.416Z,7.30
2019-04-28T02:31:21.513Z,7.20
2019-04-28T02:33:50.484Z,7.00
2019-04-28T02:36:20.969Z,6.90
2019-04-28T02:38:51.303Z,6.90
2019-04-28T02:41:20.924Z,6.90
2019-04-28T02:43:51.043Z,6.80
2019-04-28T02:46:21.056Z,6.80
2019-04-28T02:48:53.585Z,6.80
2019-04-28T02:51:26.694Z,6.80
2019-04-28T02:53:55.586Z,6.70
2019-04-28T02:56:24.509Z,6.80
2019-04-28T02:58:53.293Z,6.70
2019-04-28T03:01:26.407Z,6.80
2019-04-28T03:03:52.976Z,6.70
2019-04-28T03:06:21.814Z,6.70
2019-04-28T03:08:51.294Z,6.80
2019-04-28T03:11:20.511Z,6.80
2019-04-28T03:13:51.102Z,6.80
2019-04-28T03:16:22.902Z,6.80
2019-04-28T03:18:51.564Z,6.70
2019-04-28T03:21:21.514Z,6.70
2019-04-28T03:23:51.722Z,6.70
2019-04-28T03:26:50.900Z,6.70
2019-04-28T03:29:42.977Z,6.50
2019-04-28T03:32:43.929Z,6.50
2019-04-28T03:35:03.487Z,6.40
2019-04-28T03:37:32.302Z,6.40
2019-04-28T03:40:01.365Z,6.50
2019-04-28T03:42:31.407Z,6.50
2019-04-28T03:47:31.513Z,6.40
2019-04-28T03:50:00.505Z,6.50
2019-04-28T03:52:31.812Z,6.40
2019-04-28T03:55:00.525Z,6.40
2019-04-28T03:57:31.369Z,6.30
2019-04-28T04:00:01.559Z,6.30
2019-04-28T04:02:31.359Z,6.30
2019-04-28T04:05:03.868Z,6.30
2019-04-28T04:07:31.556Z,6.30
2019-04-28T04:10:14.862Z,6.20
2019-04-28T04:13:11.651Z,6.20
2019-04-28T04:15:53.525Z,6.00
2019-04-28T04:18:40.813Z,6.00
2019-04-28T04:21:11.092Z,5.90
2019-04-28T04:23:41.121Z,6.00
2019-04-28T04:26:11.659Z,6.00
2019-04-28T04:28:41.824Z,5.90
2019-04-28T04:31:10.902Z,5.90
2019-04-28T04:33:41.108Z,5.90
2019-04-28T04:36:11.596Z,5.80
2019-04-28T04:38:45.943Z,5.90
2019-04-28T04:41:12.229Z,5.90
2019-04-28T04:43:41.796Z,5.90
2019-04-28T04:46:22.061Z,5.90
2019-04-28T04:48:50.946Z,5.90
2019-04-28T04:51:21.192Z,5.80
2019-04-28T04:53:51.456Z,5.90
2019-04-28T04:56:21.525Z,5.80
2019-04-28T04:58:50.981Z,5.80
2019-04-28T05:01:45.283Z,5.90
2019-04-28T05:04:45.618Z,5.80
2019-04-28T05:07:14.420Z,5.80
2019-04-28T05:09:43.553Z,5.80
2019-04-28T05:12:12.742Z,5.70
2019-04-28T05:14:41.726Z,5.80
2019-04-28T05:17:11.345Z,5.90
2019-04-28T05:19:40.523Z,5.90
2019-04-28T05:22:10.242Z,5.90
2019-04-28T05:24:54.516Z,5.90
2019-04-28T05:27:25.634Z,5.90
2019-04-28T05:29:56.849Z,6.00
2019-04-28T05:32:25.523Z,6.10
2019-04-28T05:34:54.370Z,6.30
2019-04-28T05:37:23.476Z,6.30
2019-04-28T05:39:52.670Z,6.20
2019-04-28T05:42:21.700Z,6.30
2019-04-28T05:44:50.928Z,6.40
2019-04-28T05:47:20.300Z,6.40
2019-04-28T05:50:00.225Z,6.30
2019-04-28T05:52:50.120Z,6.30
2019-04-28T05:55:22.507Z,6.40
2019-04-28T05:58:17.181Z,6.40
2019-04-28T06:00:53.073Z,6.40
2019-04-28T06:03:23.215Z,6.50
2019-04-28T06:05:52.183Z,6.60
2019-04-28T06:08:40.723Z,6.80
2019-04-28T06:11:28.050Z,6.80
2019-04-28T06:13:56.918Z,6.90
2019-04-28T06:16:25.772Z,6.80
2019-04-28T06:18:54.913Z,6.80
2019-04-28T06:21:23.813Z,6.80
2019-04-28T06:23:52.720Z,6.70
2019-04-28T06:26:21.589Z,6.70
2019-04-28T06:28:50.692Z,6.80
2019-04-28T06:31:19.646Z,6.80
2019-04-28T06:33:48.799Z,6.70
2019-04-28T06:36:17.713Z,6.70
2019-04-28T06:38:46.959Z,6.60
2019-04-28T06:41:16.162Z,6.70
2019-04-28T06:43:45.077Z,6.90
2019-04-28T06:46:13.943Z,6.90
2019-04-28T06:48:43.315Z,7.00
2019-04-28T06:51:12.169Z,7.00
2019-04-28T06:53:41.039Z,7.00
2019-04-28T06:56:10.111Z,7.00
2019-04-28T06:58:39.099Z,7.00
2019-04-28T07:01:08.224Z,7.10
2019-04-28T07:03:36.994Z,7.20
2019-04-28T07:06:05.984Z,7.20
2019-04-28T07:08:35.056Z,7.20
2019-04-28T07:11:04.402Z,7.20
2019-04-28T07:13:33.439Z,7.30
2019-04-28T07:16:02.664Z,7.20
2019-04-28T07:18:31.822Z,7.20
2019-04-28T07:21:09.964Z,7.20
2019-04-28T07:23:39.986Z,7.20
2019-04-28T07:26:09.030Z,7.30
2019-04-28T07:28:38.073Z,7.30
2019-04-28T07:31:07.241Z,7.50
2019-04-28T07:33:36.504Z,7.60
2019-04-28T07:36:05.772Z,7.90
2019-04-28T07:38:35.191Z,7.90
2019-04-28T07:41:04.247Z,8.00
2019-04-28T07:43:33.389Z,8.00
2019-04-28T07:46:02.447Z,7.80
2019-04-28T07:48:31.403Z,7.80
2019-04-28T07:51:00.396Z,7.60
2019-04-28T07:53:38.561Z,7.70
2019-04-28T07:56:07.981Z,7.80
2019-04-28T07:58:37.082Z,7.90
2019-04-28T08:01:07.854Z,7.90
2019-04-28T08:03:48.866Z,8.00
2019-04-28T08:06:07.499Z,8.10
2019-04-28T08:08:36.647Z,8.20
2019-04-28T08:11:05.635Z,8.30
2019-04-28T08:13:34.473Z,8.30
2019-04-28T08:16:03.570Z,8.30
2019-04-28T08:18:32.914Z,8.20
2019-04-28T08:21:01.811Z,8.20
2019-04-28T08:23:30.681Z,8.30
2019-04-28T08:25:59.519Z,8.20
2019-04-28T08:28:28.685Z,8.10
2019-04-28T08:30:57.558Z,8.10
2019-04-28T08:33:43.995Z,8.20
2019-04-28T08:36:12.827Z,8.30
2019-04-28T08:38:41.781Z,8.50
2019-04-28T08:41:10.697Z,8.60
2019-04-28T08:43:39.882Z,8.60
2019-04-28T08:46:09.155Z,8.80
2019-04-28T08:48:38.064Z,9.10
2019-04-28T08:51:06.868Z,9.20
2019-04-28T08:53:36.199Z,9.30
2019-04-28T08:56:05.171Z,9.00
2019-04-28T08:58:34.018Z,8.90
2019-04-28T09:01:02.932Z,8.90
2019-04-28T09:03:32.001Z,8.90
2019-04-28T09:06:01.485Z,8.90
2019-04-28T09:08:30.377Z,8.90
2019-04-28T09:10:59.162Z,9.00
2019-04-28T09:13:27.950Z,9.10
2019-04-28T09:15:56.728Z,9.10
2019-04-28T09:18:25.759Z,9.20
2019-04-28T09:20:54.632Z,9.20
2019-04-28T09:23:23.483Z,9.10
2019-04-28T09:25:52.640Z,9.30
2019-04-28T09:28:21.411Z,9.50
2019-04-28T09:30:50.318Z,9.50
2019-04-28T09:33:19.162Z,9.60
2019-04-28T09:35:48.430Z,9.80
2019-04-28T09:38:17.196Z,9.60
2019-04-28T09:40:46.150Z,9.50
2019-04-28T09:43:25.394Z,9.60
2019-04-28T09:46:00.124Z,9.80
2019-04-28T09:48:29.067Z,10.00
2019-04-28T09:50:58.007Z,9.80
2019-04-28T09:53:26.788Z,9.70
2019-04-28T09:55:55.639Z,9.70
2019-04-28T09:58:24.812Z,9.90
2019-04-28T10:00:53.663Z,10.10
2019-04-28T10:03:25.275Z,10.30
2019-04-28T10:05:53.536Z,10.50
2019-04-28T10:08:22.475Z,10.70
2019-04-28T10:10:51.950Z,11.00
2019-04-28T10:13:20.749Z,11.10
2019-04-28T10:15:49.977Z,11.10
2019-04-28T10:18:19.147Z,11.30
2019-04-28T10:20:48.183Z,11.60
2019-04-28T10:23:17.567Z,11.70
2019-04-28T10:25:46.413Z,12.00
2019-04-28T10:28:15.513Z,11.90
2019-04-28T10:30:44.443Z,11.90
2019-04-28T10:33:13.603Z,11.90
2019-04-28T10:35:42.543Z,11.90
2019-04-28T10:38:11.444Z,11.80
2019-04-28T10:41:09.071Z,11.30
2019-04-28T10:43:38.215Z,11.40
2019-04-28T10:46:07.054Z,11.40
2019-04-28T10:48:36.466Z,11.40
2019-04-28T10:51:05.634Z,11.30
2019-04-28T10:53:34.730Z,11.00
2019-04-28T10:56:03.793Z,11.10
2019-04-28T10:58:32.639Z,11.10
2019-04-28T11:01:01.605Z,10.90
2019-04-28T11:03:30.424Z,10.80
2019-04-28T11:05:59.171Z,10.60
2019-04-28T11:09:02.300Z,10.70
2019-04-28T11:13:59.869Z,11.10
2019-04-28T11:16:32.596Z,11.10
2019-04-28T11:19:01.615Z,11.20
2019-04-28T11:21:30.531Z,11.30
2019-04-28T11:23:59.383Z,11.40
2019-04-28T11:26:28.508Z,11.60
2019-04-28T11:28:57.347Z,12.00
2019-04-28T11:31:26.328Z,12.00
2019-04-28T11:34:05.119Z,12.00
2019-04-28T11:36:34.331Z,11.90
2019-04-28T11:39:04.703Z,11.90
2019-04-28T11:41:33.796Z,12.00
2019-04-28T11:44:02.943Z,12.00
2019-04-28T11:46:32.139Z,12.00
2019-04-28T11:49:01.259Z,12.00
2019-04-28T11:51:30.383Z,12.00
2019-04-28T11:53:59.222Z,12.30
2019-04-28T11:56:40.499Z,12.30
2019-04-28T11:58:58.773Z,12.50
2019-04-28T12:01:28.057Z,12.30
2019-04-28T12:04:00.321Z,12.30
2019-04-28T12:06:29.251Z,12.40
2019-04-28T12:09:03.810Z,12.20
2019-04-28T12:11:35.323Z,12.20
2019-04-28T12:14:12.979Z,12.20
2019-04-28T12:16:59.765Z,12.20
2019-04-28T12:19:39.380Z,12.30
2019-04-28T12:22:08.292Z,12.50
2019-04-28T12:24:37.208Z,12.60
2019-04-28T12:27:06.461Z,12.80
2019-04-28T12:29:35.329Z,12.80
2019-04-28T12:32:04.226Z,12.60
2019-04-28T12:34:33.563Z,12.70
2019-04-28T12:37:02.707Z,12.80
2019-04-28T12:39:31.579Z,12.80
2019-04-28T12:42:00.522Z,12.80
2019-04-28T12:44:29.638Z,12.80
2019-04-28T12:46:58.409Z,12.80
2019-04-28T12:49:42.945Z,12.80
2019-04-28T12:52:12.017Z,12.60
2019-04-28T12:54:41.047Z,12.50
2019-04-28T12:57:09.961Z,12.90
2019-04-28T12:59:53.082Z,13.10
2019-04-28T13:02:58.688Z,13.30
2019-04-28T13:05:27.629Z,13.30
2019-04-28T13:07:56.587Z,13.30
2019-04-28T13:10:25.419Z,13.30
2019-04-28T13:12:54.747Z,13.40
2019-04-28T13:15:23.726Z,13.40
2019-04-28T13:17:53.231Z,13.40
2019-04-28T13:20:22.275Z,13.40
2019-04-28T13:22:51.698Z,13.20
2019-04-28T13:25:20.673Z,13.00
2019-04-28T13:27:49.479Z,12.60
2019-04-28T13:30:18.407Z,12.60
2019-04-28T13:32:47.639Z,12.70
2019-04-28T13:35:16.640Z,12.90
2019-04-28T13:37:45.643Z,12.90
2019-04-28T13:40:21.268Z,12.90
2019-04-28T13:45:21.272Z,12.70
2019-04-28T13:47:50.134Z,12.70
2019-04-28T13:50:25.107Z,12.70
2019-04-28T13:52:54.046Z,12.50
2019-04-28T13:55:40.623Z,12.50
2019-04-28T13:58:09.748Z,12.90
2019-04-28T14:00:57.759Z,13.00
2019-04-28T14:03:34.618Z,13.30
2019-04-28T14:06:06.779Z,13.50
2019-04-28T14:08:35.627Z,13.60
2019-04-28T14:11:04.554Z,13.90
2019-04-28T14:13:33.490Z,14.20
2019-04-28T14:16:02.694Z,13.80
2019-04-28T14:18:31.591Z,13.90
2019-04-28T14:21:00.736Z,14.00
2019-04-28T14:23:29.617Z,15.00
2019-04-28T14:25:58.374Z,15.90
2019-04-28T14:28:27.671Z,16.40
2019-04-28T14:30:56.864Z,17.50
2019-04-28T14:33:25.951Z,17.60
2019-04-28T14:35:54.765Z,18.40
2019-04-28T14:38:23.962Z,18.40
2019-04-28T14:40:52.805Z,18.40
2019-04-28T14:43:21.658Z,18.40
2019-04-28T14:45:50.705Z,18.20
2019-04-28T14:48:19.951Z,19.00
2019-04-28T14:50:49.199Z,20.00
2019-04-28T14:53:18.031Z,20.00
2019-04-28T14:55:46.963Z,20.10
2019-04-28T14:58:16.098Z,19.40
2019-04-28T15:00:49.674Z,19.50
2019-04-28T15:03:18.616Z,19.40
2019-04-28T15:06:15.029Z,19.50
2019-04-28T15:08:57.641Z,19.80
2019-04-28T15:11:42.667Z,19.70
2019-04-28T15:14:12.150Z,20.40
2019-04-28T15:16:41.400Z,20.70
2019-04-28T15:19:10.222Z,20.70
2019-04-28T15:21:39.068Z,20.90
2019-04-28T15:24:07.847Z,21.60
2019-04-28T15:26:36.999Z,21.10
2019-04-28T15:29:06.147Z,21.30
2019-04-28T15:31:35.227Z,21.20
2019-04-28T15:34:04.377Z,21.10
2019-04-28T15:36:33.443Z,21.40
2019-04-28T15:39:02.706Z,20.60
2019-04-28T15:41:31.687Z,20.60
2019-04-28T15:44:00.517Z,21.10
2019-04-28T15:46:29.515Z,21.50
2019-04-28T15:48:58.589Z,21.70
2019-04-28T15:51:28.551Z,21.40
2019-04-28T15:53:57.339Z,21.40
2019-04-28T15:56:44.937Z,21.30
2019-04-28T15:59:13.977Z,21.20
2019-04-28T16:01:42.842Z,21.30
2019-04-28T16:04:11.634Z,21.60
2019-04-28T16:06:41.566Z,21.50
2019-04-28T16:09:14.369Z,21.40
2019-04-28T16:11:43.957Z,21.00
2019-04-28T16:14:12.823Z,20.40
2019-04-28T16:16:41.717Z,20.30
2019-04-28T16:19:10.733Z,19.40
2019-04-28T16:21:39.655Z,18.80
2019-04-28T16:24:08.921Z,18.50
2019-04-28T16:26:37.708Z,18.10
2019-04-28T16:29:06.631Z,17.90
2019-04-28T16:31:35.941Z,17.80
2019-04-28T16:34:04.863Z,17.10
2019-04-28T16:36:33.737Z,16.80
2019-04-28T16:39:02.583Z,16.50
2019-04-28T16:41:33.383Z,15.90
2019-04-28T16:44:08.931Z,15.70
2019-04-28T16:46:38.516Z,15.30
2019-04-28T16:49:07.299Z,15.30
2019-04-28T16:51:36.863Z,15.20
2019-04-28T16:54:05.814Z,15.20
2019-04-28T16:56:44.066Z,15.20
2019-04-28T16:59:50.714Z,15.10
2019-04-28T17:02:31.510Z,14.90
2019-04-28T17:05:00.443Z,14.90
2019-04-28T17:07:29.654Z,14.80
2019-04-28T17:09:58.653Z,14.60
2019-04-28T17:12:27.531Z,14.60
2019-04-28T17:14:56.702Z,14.60
2019-04-28T17:17:25.675Z,14.60
2019-04-28T17:19:54.590Z,14.60
2019-04-28T17:22:23.460Z,14.40
2019-04-28T17:24:52.619Z,14.10
2019-04-28T17:27:21.392Z,14.40
2019-04-28T17:29:51.259Z,14.40
2019-04-28T17:32:20.771Z,14.70
2019-04-28T17:34:49.561Z,14.90
2019-04-28T17:37:18.740Z,15.20
2019-04-28T17:39:48.256Z,15.20
2019-04-28T17:42:17.384Z,15.10
2019-04-28T17:44:46.332Z,14.00
2019-04-28T17:47:16.822Z,13.40
2019-04-28T17:49:45.677Z,13.40
2019-04-28T17:52:14.644Z,13.50
2019-04-28T17:54:43.518Z,13.60
2019-04-28T17:57:12.454Z,13.60
2019-04-28T17:59:41.710Z,13.50
2019-04-28T18:02:32.810Z,13.60
2019-04-28T18:05:18.719Z,13.60
2019-04-28T18:07:49.466Z,13.60
2019-04-28T18:10:20.059Z,13.20
2019-04-28T18:12:59.917Z,13.20
2019-04-28T18:15:34.287Z,13.30
2019-04-28T18:18:11.906Z,13.30
2019-04-28T18:20:41.015Z,13.40
2019-04-28T18:23:10.403Z,13.40
2019-04-28T18:25:39.325Z,13.50
2019-04-28T18:28:08.184Z,13.50
2019-04-28T18:30:40.752Z,13.20
2019-04-28T18:33:27.683Z,13.10
2019-04-28T18:36:02.204Z,13.10
2019-04-28T18:38:56.684Z,13.00
2019-04-28T18:41:43.307Z,13.00
2019-04-28T18:44:19.026Z,12.70
2019-04-28T18:46:48.257Z,12.60
2019-04-28T18:49:17.116Z,12.60
2019-04-28T18:51:46.275Z,12.50
2019-04-28T18:54:15.267Z,12.40
2019-04-28T18:56:44.247Z,12.30
2019-04-28T18:59:13.492Z,12.30
2019-04-28T19:01:48.304Z,12.20
2019-04-28T19:04:17.436Z,12.10
2019-04-28T19:06:46.199Z,12.10
2019-04-28T19:09:34.123Z,12.00
2019-04-28T19:12:21.099Z,11.90
2019-04-28T19:14:58.460Z,11.90
2019-04-28T19:17:39.571Z,11.80
2019-04-28T19:20:08.840Z,11.80
2019-04-28T19:22:47.867Z,11.80
2019-04-28T19:25:16.735Z,11.70
2019-04-28T19:27:45.574Z,11.70
2019-04-28T19:30:14.678Z,11.70
2019-04-28T19:32:43.710Z,11.60
2019-04-28T19:35:12.762Z,11.30
2019-04-28T19:37:41.953Z,11.20
2019-04-28T19:40:11.156Z,11.20
2019-04-28T19:42:40.443Z,11.10
2019-04-28T19:45:12.094Z,11.00
2019-04-28T19:47:41.162Z,11.00
2019-04-28T19:50:10.615Z,10.90
2019-04-28T19:52:42.520Z,10.90
2019-04-28T19:55:19.905Z,10.90
2019-04-28T19:57:54.016Z,10.80
2019-04-28T20:00:45.746Z,10.80
2019-04-28T20:03:15.000Z,10.80
2019-04-28T20:05:43.867Z,10.70
2019-04-28T20:08:13.275Z,10.70
2019-04-28T20:10:42.165Z,10.70
2019-04-28T20:13:11.020Z,10.60
2019-04-28T20:15:39.867Z,10.60
2019-04-28T20:18:08.743Z,10.60
2019-04-28T20:20:37.679Z,10.50
2019-04-28T20:23:06.535Z,10.50
2019-04-28T20:25:35.594Z,10.40
2019-04-28T20:28:04.691Z,10.40
2019-04-28T20:30:34.094Z,10.30
2019-04-28T20:33:07.542Z,10.30
2019-04-28T20:35:36.484Z,10.30
2019-04-28T20:38:27.874Z,10.20
2019-04-28T20:41:02.359Z,10.20
2019-04-28T20:46:00.453Z,10.10
2019-04-28T20:48:29.357Z,10.10
2019-04-28T20:50:58.564Z,10.10
2019-04-28T20:53:27.333Z,10.10
2019-04-28T20:55:56.540Z,10.10
2019-04-28T20:58:25.446Z,10.10
2019-04-28T21:00:54.418Z,10.10
2019-04-28T21:03:23.501Z,10.10
2019-04-28T21:05:52.491Z,10.10
2019-04-28T21:08:21.307Z,10.10
2019-04-28T21:10:50.167Z,10.10
2019-04-28T21:13:19.276Z,10.10
2019-04-28T21:15:48.180Z,10.10
2019-04-28T21:18:17.131Z,10.00
2019-04-28T21:20:46.263Z,9.90
2019-04-28T21:23:15.115Z,9.90
2019-04-28T21:25:43.987Z,9.90
2019-04-28T21:28:12.908Z,9.80
2019-04-28T21:30:42.410Z,9.80
2019-04-28T21:33:11.296Z,9.70
2019-04-28T21:35:40.151Z,9.70
2019-04-28T21:38:08.975Z,9.60
2019-04-28T21:40:38.771Z,9.60
2019-04-28T21:43:32.710Z,9.50
2019-04-28T21:46:23.559Z,9.50
2019-04-28T21:48:55.540Z,9.50
2019-04-28T21:53:53.706Z,9.40
2019-04-28T21:56:22.556Z,9.30
2019-04-28T21:58:51.459Z,9.30
2019-04-28T22:01:22.383Z,9.30
2019-04-28T22:03:51.467Z,9.30
2019-04-28T22:06:20.507Z,9.20
2019-04-28T22:08:49.680Z,9.20
2019-04-28T22:11:18.865Z,9.20
2019-04-28T22:13:47.702Z,9.20
2019-04-28T22:16:16.953Z,9.10
2019-04-28T22:21:14.355Z,9.00
2019-04-28T22:23:50.877Z,8.90
2019-04-28T22:26:37.463Z,8.90
2019-04-28T22:29:06.324Z,8.80
2019-04-28T22:31:35.494Z,8.70
2019-04-28T22:34:04.470Z,8.70
2019-04-28T22:36:33.589Z,8.60
2019-04-28T22:39:02.455Z,8.60
2019-04-28T22:41:31.442Z,8.50
2019-04-28T22:44:00.607Z,8.40
2019-04-28T22:46:29.412Z,8.30
2019-04-28T22:48:59.931Z,8.30
2019-04-28T22:51:28.780Z,8.30
2019-04-28T22:53:59.804Z,8.30
2019-04-28T22:56:35.284Z,8.20
2019-04-28T22:59:09.637Z,8.10
2019-04-28T23:01:42.376Z,8.10
2019-04-28T23:04:39.932Z,8.00
2019-04-28T23:07:08.922Z,8.00
2019-04-28T23:09:37.928Z,8.00
2019-04-28T23:12:08.338Z,7.90
2019-04-28T23:14:37.126Z,7.90
2019-04-28T23:17:07.705Z,7.80
2019-04-28T23:19:38.493Z,7.80
2019-04-28T23:22:13.221Z,7.80
2019-04-28T23:24:42.433Z,7.90
2019-04-28T23:27:11.210Z,7.70
2019-04-28T23:29:40.047Z,7.70
2019-04-28T23:34:37.383Z,7.70
2019-04-28T23:37:06.331Z,7.70
2019-04-28T23:39:35.222Z,7.60
2019-04-28T23:42:13.480Z,7.60
2019-04-28T23:44:42.667Z,7.60
2019-04-28T23:47:11.675Z,7.50
2019-04-28T23:49:40.783Z,7.60
2019-04-28T23:52:47.343Z,7.50
2019-04-28T23:55:17.432Z,7.50
2019-04-28T23:57:46.788Z,7.50
